Boonsboro, MD

6:24 PM EST on February 22, 2017 (GMT -0500)
Boonsboro Weather Station | | Change Station

Elev 520 ft 39.51 °N, 77.65 °W | Updated 29 seconds ago

Clear
Clear
55.0 °F
Feels Like 55.0 °F
N
2.2
Wind Variable Wind from SSE

Today
High -- | Low -- °F
--% Chance of Precip.
Yesterday
High -- | Low -- °F
Precip. -- in
Pressure 29.90 in
Visibility 10.0 miles
Clouds Clear
Dew Point 44 °F
Humidity 65%
Rainfall 0.00 in
Snow Depth Not available.
6:53 AM 5:55 PM
Waning Crescent, 14% visible
METAR KHGR 222253Z 16007KT 10SM CLR 17/07 A2987 RMK AO2 SLP123 T01670067
Pressure 29.90 in
Visibility 10.0 miles
Clouds Clear
Dew Point 44 °F
Humidity 65%
Rainfall 0.00 in
Snow Depth Not available.
6:53 AM 5:55 PM
Waning Crescent, 14% visible
METAR KHGR 222253Z 16007KT 10SM CLR 17/07 A2987 RMK AO2 SLP123 T01670067

Get Your Daily Forecast Email!

Thanks for signing up!

Be on the lookout for a verification email in your inbox.

You'll start receiving the daily forecast at 8 AM.

×

10-Day Weather Forecast

Almanac

Astronomy

Feb. 22, 2017 Rise Set
Actual Time
Civil Twilight
Nautical Twilight
Astronomical Twilight
Moon
Length of Visible Light
Length of Day
Tomorrow will be .
, % of the Moon is Illuminated

Today's Extremes

State Highs State Lows

Community

WunderPhotos

Upload Photos

1,962,540 photos uploaded!

WunderBlog® & News

Nearby

Air Quality

  Air Quality AQ Index Pollutant
Not available.

Snow Depth

Station Depth Elevation

Earthquake Activity

City Distance Mag. Time & Date
Minimum magnitude displayed is 2.5.

Coastal Water Temperatures

Place Temperature

Stations

Nearby Weather Stations

Station Location Temp. Windchill Dew Point Humidity Wind Precip. Elev Updated Type
                   

Watches & Warnings

There are currently no watches in effect.